AirNav   Everest Fuels
 
 1476 users online  

55KS Ringneck Ranch Airport
Tipton, Kansas, USA

GOING TO TIPTON?


FAA INFORMATION EFFECTIVE 15 JULY 2021

Location

FAA Identifier: 55KS
Lat/Long: 39-18-01.5700N 098-27-30.0600W
39-18.026167N 098-27.501000W
39.3004361,-98.4583500
(estimated)
Elevation: 1586 ft. / 483 m (estimated)
From city: 2 miles SSE of TIPTON, KS
Time zone: UTC -5 (UTC -6 during Standard Time)
Zip code: 67452

Airport Operations

Airport use: Private use. Permission required prior to landing
Activation date: 02/2013
Control tower: no
ARTCC: KANSAS CITY CENTER
FSS: WICHITA FLIGHT SERVICE STATION
Attendance: ON CALL
Wind indicator: yes
Segmented circle: no

Airport Communications

WX AWOS-3 at K75 (13 nm NW): 120.025 (785-345-4998)
WX AWOS-3 at K61 (18 nm NE): 118.225 (785-534-1141)

Nearby radio navigation aids

VOR radial/distance  VOR name  Freq  Var
TKOr187/31.7MANKATO VORTAC109.8010E

Airport Services

Runway Information

Runway 18/36

Dimensions: 2600 x 50 ft. / 792 x 15 m
Surface: turf, in good condition
RUNWAY 18  RUNWAY 36
Latitude: 39-18.237500N39-17.814667N
Longitude: 098-27.457000W098-27.545000W
Elevation: 1576.0 ft.1586.0 ft.
Traffic pattern: leftleft
Obstructions: 10 ft. road, 40 ft. from runwaynone

Airport Ownership and Management from official FAA records

Ownership: Privately-owned
Owner: RINGNECK RANCH, INC
655 SOLOMON LANE
TIPTON, KS 67485
Phone 785-373-4835
Manager: KEITH HOUGHTON
655 SOLOMON LANE
TIPTON, KS 67485
Phone 785-373-4835

Airport Operational Statistics

Aircraft based on the field: 1
Single engine airplanes: 1
    

Additional Remarks

18/36 MKD BY STD SPACED REFLECTORS ON 24 INCH MKR.
FOR CD CTC KANSAS CITY ARTCC AT 913-254-8508.

Instrument Procedures

There are no published instrument procedures at 55KS.

Some nearby airports with instrument procedures:

K61 - Moritz Memorial Airport (18 nm NE)
KRSL - Russell Municipal Airport (31 nm SW)
K82 - Smith Center Municipal Airport (32 nm NW)
KRCP - Rooks County Regional Airport (39 nm W)
KCNK - Blosser Municipal Airport (40 nm E)
 
Loc | Ops | Rwys | IFR | FBO | Links
Com | Nav | Svcs | Stats | Notes
Aerial photo
No photo
 
Airport distance calculator
Flying to Ringneck Ranch Airport? Find the distance to fly.

From to 55KS

Sunrise and sunset
Times for 05-Aug-2021
 Local
(UTC-5)
 Zulu
(UTC)
Morning civil twilight06:0911:09
Sunrise06:3811:38
Sunset20:4101:41
Evening civil twilight21:1102:11

Current date and time
Zulu (UTC)  05-Aug-2021 15:39:24
Local (UTC-5)  05-Aug-2021 10:39:24
 
METAR
KRSL 
31nm SW 
051453Z AUTO 23011KT 10SM CLR 27/14 A3006 RMK AO2 SLP161 T02670139 50005
KK82 
32nm NW 
051515Z AUTO 24005KT 10SM 26/20 A3005 RMK AO2
KCNK 
40nm E 
051455Z AUTO 23010KT 10SM CLR 24/17 A3003 RMK AO2 SLP154 T02440167 50003
KHYS 
46nm SW 
051456Z AUTO 20007KT 10SM SCT120 25/16 A3009 RMK AO2 SLP171 T02500156 50002
KSLN 
49nm SE 
051453Z 21009KT 10SM CLR 25/17 A3005 RMK AO2 SLP164 T02500167 50005
TAF
KRSL 
31nm SW 
051126Z 0512/0612 21008KT P6SM SCT030 BKN100 FM051700 22009KT P6SM FEW060 SCT180 FM060300 16009KT P6SM SKC
NOTAMs
Click for the latest NOTAMs
NOTAMs are issued by the DoD/FAA and will open in a separate window not controlled by AirNav.

 

 
 

Would you like to see your business listed on this page?

 If your business provides an interesting product or service to pilots, flight crews, aircraft, or users of the Ringneck Ranch Airport, you should consider listing it here.  To start the listing process, click on the button below
 
Add a business
 

Other Pages about Ringneck Ranch Airport

Update a link
 
Copyright © AirNav, LLC. All rights reserved. Privacy Policy  Contact